createdAt,value
2023-03-16T00:02:24.502Z,8.87
2023-03-16T00:04:57.157Z,8.89
2023-03-16T00:07:29.567Z,8.91
2023-03-16T00:10:01.992Z,8.93
2023-03-16T00:12:35.051Z,8.94
2023-03-16T00:15:09.142Z,8.95
2023-03-16T00:17:41.434Z,8.91
2023-03-16T00:20:16.094Z,8.92
2023-03-16T00:22:49.072Z,8.91
2023-03-16T00:25:21.683Z,8.89
2023-03-16T00:27:54.295Z,8.89
2023-03-16T00:30:27.518Z,8.87
2023-03-16T00:33:00.441Z,8.87
2023-03-16T00:35:34.911Z,8.86
2023-03-16T00:38:07.431Z,8.86
2023-03-16T00:40:40.425Z,8.85
2023-03-16T00:43:13.022Z,8.86
2023-03-16T00:45:45.585Z,8.87
2023-03-16T00:48:18.646Z,8.88
2023-03-16T00:50:54.528Z,8.91
2023-03-16T00:53:26.972Z,8.92
2023-03-16T00:55:59.642Z,8.89
2023-03-16T00:58:36.030Z,8.90
2023-03-16T01:01:11.763Z,8.88
2023-03-16T01:03:44.891Z,8.90
2023-03-16T01:06:20.815Z,8.89
2023-03-16T01:08:53.835Z,8.90
2023-03-16T01:11:26.387Z,8.90
2023-03-16T01:13:58.755Z,8.90
2023-03-16T01:16:33.946Z,8.91
2023-03-16T01:19:06.730Z,8.88
2023-03-16T01:21:39.199Z,8.88
2023-03-16T01:24:12.310Z,8.86
2023-03-16T01:26:45.342Z,8.83
2023-03-16T01:29:17.789Z,8.78
2023-03-16T01:31:50.484Z,8.77
2023-03-16T01:34:23.281Z,8.76
2023-03-16T01:36:55.867Z,8.75
2023-03-16T01:39:28.829Z,8.68
2023-03-16T01:42:01.235Z,8.68
2023-03-16T01:44:55.260Z,8.65
2023-03-16T01:47:27.947Z,8.64
2023-03-16T01:50:00.668Z,8.63
2023-03-16T01:52:37.611Z,8.59
2023-03-16T01:55:13.894Z,8.57
2023-03-16T01:57:48.349Z,8.55
2023-03-16T02:00:24.706Z,8.56
2023-03-16T02:03:02.288Z,8.56
2023-03-16T02:05:39.593Z,8.53
2023-03-16T02:08:13.341Z,8.50
2023-03-16T02:10:46.685Z,8.51
2023-03-16T02:13:19.084Z,8.52
2023-03-16T02:15:52.651Z,8.54
2023-03-16T02:18:25.121Z,8.54
2023-03-16T02:21:05.766Z,8.53
2023-03-16T02:23:38.187Z,8.52
2023-03-16T02:26:17.458Z,8.49
2023-03-16T02:28:56.232Z,8.46
2023-03-16T02:31:29.526Z,8.42
2023-03-16T02:34:03.221Z,8.39
2023-03-16T02:36:38.006Z,8.35
2023-03-16T02:39:10.361Z,8.37
2023-03-16T02:41:43.167Z,8.35
2023-03-16T02:44:20.059Z,8.30
2023-03-16T02:46:54.421Z,8.31
2023-03-16T02:49:34.146Z,8.25
2023-03-16T02:52:07.809Z,8.27
2023-03-16T02:54:40.567Z,8.29
2023-03-16T02:57:13.046Z,8.26
2023-03-16T02:59:45.358Z,8.25
2023-03-16T03:02:17.742Z,8.26
2023-03-16T03:04:50.268Z,8.26
2023-03-16T03:07:32.352Z,8.21
2023-03-16T03:10:06.138Z,8.12
2023-03-16T03:12:38.565Z,8.04
2023-03-16T03:15:12.996Z,8.03
2023-03-16T03:17:45.991Z,8.04
2023-03-16T03:20:18.524Z,8.00
2023-03-16T03:22:53.210Z,7.96
2023-03-16T03:25:26.472Z,7.95
2023-03-16T03:28:00.382Z,7.93
2023-03-16T03:30:33.157Z,7.92
2023-03-16T03:33:06.141Z,7.92
2023-03-16T03:35:38.724Z,7.93
2023-03-16T03:38:11.740Z,7.91
2023-03-16T03:40:44.153Z,7.90
2023-03-16T03:43:16.566Z,7.89
2023-03-16T03:45:49.116Z,7.81
2023-03-16T03:48:21.371Z,7.80
2023-03-16T03:50:53.986Z,7.77
2023-03-16T03:53:26.413Z,7.71
2023-03-16T03:55:58.921Z,7.67
2023-03-16T03:58:31.282Z,7.63
2023-03-16T04:01:03.667Z,7.58
2023-03-16T04:03:35.997Z,7.54
2023-03-16T04:06:08.714Z,7.54
2023-03-16T04:08:41.084Z,7.54
2023-03-16T04:11:13.416Z,7.53
2023-03-16T04:13:45.732Z,7.50
2023-03-16T04:16:18.199Z,7.49
2023-03-16T04:18:50.598Z,7.50
2023-03-16T04:21:23.777Z,7.49
2023-03-16T04:23:56.170Z,7.50
2023-03-16T04:26:28.542Z,7.48
2023-03-16T04:29:02.723Z,7.50
2023-03-16T04:31:35.253Z,7.49
2023-03-16T04:34:07.705Z,7.49
2023-03-16T04:36:40.642Z,7.49
2023-03-16T04:39:13.416Z,7.49
2023-03-16T04:41:45.691Z,7.48
2023-03-16T04:44:18.311Z,7.46
2023-03-16T04:46:50.641Z,7.41
2023-03-16T04:49:23.101Z,7.37
2023-03-16T04:51:55.448Z,7.31
2023-03-16T04:54:27.790Z,7.25
2023-03-16T04:57:00.581Z,7.23
2023-03-16T04:59:33.114Z,7.22
2023-03-16T05:02:05.587Z,7.21
2023-03-16T05:04:37.856Z,7.18
2023-03-16T05:07:10.658Z,7.13
2023-03-16T05:09:43.438Z,7.10
2023-03-16T05:12:15.964Z,7.12
2023-03-16T05:14:48.309Z,7.10
2023-03-16T05:17:20.718Z,7.09
2023-03-16T05:19:53.223Z,7.09
2023-03-16T05:22:26.161Z,7.10
2023-03-16T05:24:58.616Z,7.10
2023-03-16T05:27:31.483Z,7.09
2023-03-16T05:30:03.945Z,7.06
2023-03-16T05:32:36.275Z,7.02
2023-03-16T05:35:10.651Z,7.02
2023-03-16T05:37:43.574Z,7.02
2023-03-16T05:40:18.302Z,6.98
2023-03-16T05:42:55.854Z,6.96
2023-03-16T05:45:28.314Z,6.94
2023-03-16T05:48:00.806Z,6.92
2023-03-16T05:50:33.153Z,6.92
2023-03-16T05:53:05.554Z,6.94
2023-03-16T05:55:38.211Z,6.97
2023-03-16T05:58:11.996Z,6.93
2023-03-16T06:00:44.414Z,6.95
2023-03-16T06:03:17.128Z,6.95
2023-03-16T06:05:50.569Z,6.95
2023-03-16T06:08:22.843Z,6.96
2023-03-16T06:10:55.168Z,6.94
2023-03-16T06:13:28.016Z,6.88
2023-03-16T06:16:00.353Z,6.86
2023-03-16T06:18:32.784Z,6.82
2023-03-16T06:21:05.225Z,6.79
2023-03-16T06:23:37.623Z,6.72
2023-03-16T06:26:10.124Z,6.72
2023-03-16T06:28:42.844Z,6.67
2023-03-16T06:31:15.319Z,6.62
2023-03-16T06:33:47.701Z,6.60
2023-03-16T06:36:20.107Z,6.58
2023-03-16T06:38:52.906Z,6.60
2023-03-16T06:41:25.317Z,6.63
2023-03-16T06:43:57.726Z,6.63
2023-03-16T06:46:30.263Z,6.64
2023-03-16T06:49:02.634Z,6.62
2023-03-16T06:51:35.078Z,6.58
2023-03-16T06:54:07.488Z,6.56
2023-03-16T06:56:39.756Z,6.55
2023-03-16T06:59:12.209Z,6.54
2023-03-16T07:01:45.221Z,6.55
2023-03-16T07:04:17.584Z,6.55
2023-03-16T07:06:50.145Z,6.60
2023-03-16T07:09:41.768Z,6.61
2023-03-16T07:12:15.042Z,6.61
2023-03-16T07:14:51.272Z,6.63
2023-03-16T07:17:25.379Z,6.63
2023-03-16T07:19:57.820Z,6.63
2023-03-16T07:22:30.658Z,6.63
2023-03-16T10:19:57.929Z,6.55
2023-03-16T10:22:30.705Z,6.53
2023-03-16T10:25:07.472Z,6.53
2023-03-16T10:27:38.534Z,6.53
2023-03-16T10:30:20.319Z,6.54
2023-03-16T10:32:50.496Z,6.59
2023-03-16T10:35:35.608Z,6.66
2023-03-16T10:38:07.591Z,6.72
2023-03-16T10:40:39.278Z,6.78
2023-03-16T10:43:14.031Z,6.77
2023-03-16T10:45:43.946Z,6.74
2023-03-16T10:48:16.265Z,6.70
2023-03-16T10:50:49.557Z,6.65
2023-03-16T10:53:23.498Z,6.60
2023-03-16T10:55:58.870Z,6.51
2023-03-16T10:58:32.020Z,6.48
2023-03-16T11:01:02.950Z,6.48
2023-03-16T11:03:40.683Z,6.51
2023-03-16T11:06:22.399Z,6.57
2023-03-16T11:08:54.353Z,6.59
2023-03-16T11:11:29.401Z,6.59
2023-03-16T11:14:00.719Z,6.58
2023-03-16T11:16:36.428Z,6.54
2023-03-16T11:19:18.404Z,6.52
2023-03-16T11:21:54.448Z,6.58
2023-03-16T11:24:25.813Z,6.65
2023-03-16T11:26:58.337Z,6.68
2023-03-16T11:29:37.416Z,6.76
2023-03-16T11:32:15.213Z,6.82
2023-03-16T11:34:46.251Z,6.80
2023-03-16T11:37:25.153Z,6.78
2023-03-16T11:40:08.751Z,6.75
2023-03-16T11:42:42.016Z,6.77
2023-03-16T11:45:21.012Z,6.81
2023-03-16T11:48:14.778Z,6.83
2023-03-16T11:50:58.006Z,6.86
2023-03-16T11:53:38.495Z,6.82
2023-03-16T11:56:16.556Z,6.77
2023-03-16T11:59:01.408Z,6.79
2023-03-16T12:01:54.398Z,6.82
2023-03-16T12:04:40.874Z,6.91
2023-03-16T12:07:37.867Z,6.95
2023-03-16T12:10:26.039Z,6.98
2023-03-16T12:13:14.021Z,7.00
2023-03-16T12:15:47.670Z,7.01
2023-03-16T12:18:21.236Z,7.04
2023-03-16T12:20:55.732Z,7.07
2023-03-16T12:23:32.615Z,7.10
2023-03-16T12:26:02.898Z,7.13
2023-03-16T12:28:33.740Z,7.14
2023-03-16T12:31:10.094Z,7.16
2023-03-16T12:33:57.950Z,7.15
2023-03-16T12:37:02.119Z,7.21
2023-03-16T12:39:55.470Z,7.25
2023-03-16T12:42:48.452Z,7.29
2023-03-16T12:45:29.513Z,7.37
2023-03-16T12:48:06.643Z,7.41
2023-03-16T12:50:48.575Z,7.45
2023-03-16T12:53:41.659Z,7.49
2023-03-16T12:56:14.753Z,7.50
2023-03-16T12:58:48.785Z,7.46
2023-03-16T13:01:20.772Z,7.46
2023-03-16T13:03:58.795Z,7.49
2023-03-16T13:06:36.126Z,7.52
2023-03-16T13:09:07.059Z,7.56
2023-03-16T13:11:49.465Z,7.62
2023-03-16T13:14:37.606Z,7.66
2023-03-16T13:17:22.935Z,7.69
2023-03-16T13:20:06.119Z,7.72
2023-03-16T13:22:45.954Z,7.75
2023-03-16T13:25:21.912Z,7.79
2023-03-16T13:27:51.968Z,7.79
2023-03-16T13:30:25.663Z,7.78
2023-03-16T13:32:57.228Z,7.79
2023-03-16T13:35:28.425Z,7.77
2023-03-16T13:38:05.332Z,7.73
2023-03-16T13:40:35.098Z,7.72
2023-03-16T13:43:04.115Z,7.73
2023-03-16T13:45:38.293Z,7.75
2023-03-16T13:48:11.657Z,7.75
2023-03-16T13:50:42.135Z,7.77
2023-03-16T13:53:16.886Z,7.80
2023-03-16T13:55:48.005Z,7.84
2023-03-16T13:58:25.369Z,7.87
2023-03-16T14:00:57.860Z,7.87
2023-03-16T14:03:33.344Z,7.89
2023-03-16T14:06:03.150Z,7.90
2023-03-16T14:08:33.351Z,7.92
2023-03-16T14:11:03.494Z,7.92
2023-03-16T14:13:37.779Z,7.90
2023-03-16T14:16:14.703Z,7.88
2023-03-16T14:18:46.783Z,7.86
2023-03-16T14:21:18.076Z,7.87
2023-03-16T14:23:48.316Z,7.90
2023-03-16T14:26:18.478Z,7.91
2023-03-16T14:28:57.881Z,7.92
2023-03-16T14:31:35.642Z,7.94
2023-03-16T14:34:08.254Z,7.97
2023-03-16T14:36:39.027Z,8.08
2023-03-16T14:39:16.723Z,8.18
2023-03-16T14:41:49.167Z,8.25
2023-03-16T14:44:22.800Z,8.29
2023-03-16T14:46:55.884Z,8.30
2023-03-16T14:49:27.934Z,8.30
2023-03-16T14:52:02.045Z,8.30
2023-03-16T14:54:31.644Z,8.35
2023-03-16T14:57:04.998Z,8.37
2023-03-16T14:59:34.088Z,8.36
2023-03-16T15:02:07.259Z,8.29
2023-03-16T15:04:37.413Z,8.24
2023-03-16T15:07:22.073Z,8.21
2023-03-16T15:09:53.138Z,8.15
2023-03-16T15:12:24.492Z,8.10
2023-03-16T15:15:12.192Z,8.07
2023-03-16T15:17:41.727Z,7.98
2023-03-16T15:20:14.658Z,7.95
2023-03-16T15:22:45.752Z,7.95
2023-03-16T15:25:25.615Z,7.96
2023-03-16T15:27:55.493Z,7.95
2023-03-16T15:30:26.408Z,7.95
2023-03-16T15:32:55.466Z,7.97
2023-03-16T15:35:24.548Z,8.01
2023-03-16T15:37:53.628Z,8.03
2023-03-16T15:40:25.405Z,8.03
2023-03-16T15:42:54.591Z,8.01
2023-03-16T15:45:24.963Z,7.99
2023-03-16T15:47:54.734Z,7.92
2023-03-16T15:50:25.128Z,7.91
2023-03-16T15:52:57.490Z,7.90
2023-03-16T15:55:33.366Z,7.94
2023-03-16T15:58:03.120Z,7.93
2023-03-16T16:00:35.178Z,7.89
2023-03-16T16:03:06.745Z,7.86
2023-03-16T16:05:36.113Z,7.84
2023-03-16T16:08:05.420Z,7.80
2023-03-16T16:10:34.765Z,7.77
2023-03-16T16:13:03.751Z,7.77
2023-03-16T16:15:36.548Z,7.73
2023-03-16T16:18:24.476Z,7.75
2023-03-16T16:20:54.210Z,7.68
2023-03-16T16:23:24.455Z,7.56
2023-03-16T16:25:55.085Z,7.54
2023-03-16T16:28:26.556Z,7.54
2023-03-16T16:30:55.836Z,7.60
2023-03-16T16:33:27.608Z,7.68
2023-03-16T16:35:58.975Z,7.69
2023-03-16T16:38:29.671Z,7.66
2023-03-16T16:41:02.122Z,7.68
2023-03-16T16:43:36.137Z,7.62
2023-03-16T16:46:12.086Z,7.70
2023-03-16T16:48:45.356Z,7.71
2023-03-16T16:51:18.887Z,7.64
2023-03-16T16:53:48.397Z,7.53
2023-03-16T16:56:20.549Z,7.48
2023-03-16T16:58:49.597Z,7.47
2023-03-16T17:01:25.700Z,7.45
2023-03-16T17:03:55.056Z,7.45
2023-03-16T17:06:24.342Z,7.39
2023-03-16T17:08:54.661Z,7.38
2023-03-16T17:11:25.769Z,7.39
2023-03-16T17:13:56.350Z,7.43
2023-03-16T17:16:26.582Z,7.49
2023-03-16T17:18:55.767Z,7.51
2023-03-16T17:21:29.356Z,7.52
2023-03-16T17:23:59.629Z,7.55
2023-03-16T17:26:32.376Z,7.56
2023-03-16T17:29:05.848Z,7.59
2023-03-16T17:31:38.449Z,7.57
2023-03-16T17:34:16.750Z,7.54
2023-03-16T17:36:46.318Z,7.47
2023-03-16T17:39:20.388Z,7.39
2023-03-16T17:41:51.372Z,7.36
2023-03-16T17:44:20.918Z,7.31
2023-03-16T17:46:49.898Z,7.24
2023-03-16T17:49:20.025Z,7.19
2023-03-16T17:51:49.071Z,7.14
2023-03-16T17:54:18.165Z,7.12
2023-03-16T17:56:50.228Z,7.07
2023-03-16T17:59:21.560Z,7.07
2023-03-16T18:01:50.736Z,7.08
2023-03-16T18:04:21.657Z,7.06
2023-03-16T18:06:51.799Z,7.04
2023-03-16T18:09:21.476Z,7.04
2023-03-16T18:11:51.714Z,7.04
2023-03-16T18:14:34.421Z,7.05
2023-03-16T18:17:07.156Z,7.08
2023-03-16T18:19:37.238Z,7.07
2023-03-16T18:22:15.495Z,7.04
2023-03-16T18:24:44.394Z,7.05
2023-03-16T18:27:13.381Z,7.04
2023-03-16T18:29:42.721Z,7.06
2023-03-16T18:32:21.042Z,7.10
2023-03-16T18:34:51.301Z,7.16
2023-03-16T18:37:23.047Z,7.15
2023-03-16T18:39:53.057Z,7.16
2023-03-16T18:42:23.402Z,7.10
2023-03-16T18:44:52.408Z,7.05
2023-03-16T18:47:23.712Z,7.04
2023-03-16T18:49:53.529Z,7.01
2023-03-16T18:52:24.734Z,6.99
2023-03-16T18:54:55.063Z,7.01
2023-03-16T18:57:26.649Z,7.03
2023-03-16T18:59:56.187Z,7.08
2023-03-16T19:02:36.627Z,7.15
2023-03-16T19:05:09.239Z,7.19
2023-03-16T19:07:40.670Z,7.23
2023-03-16T19:10:21.866Z,7.27
2023-03-16T19:12:52.042Z,7.33
2023-03-16T19:15:24.041Z,7.34
2023-03-16T19:17:54.192Z,7.23
2023-03-16T19:20:26.566Z,7.18
2023-03-16T19:23:02.260Z,7.10
2023-03-16T19:25:35.495Z,7.04
2023-03-16T19:28:07.194Z,6.97
2023-03-16T19:30:36.765Z,6.97
2023-03-16T19:33:18.406Z,6.93
2023-03-16T19:35:51.988Z,6.83
2023-03-16T19:38:22.603Z,6.73
2023-03-16T19:40:55.385Z,6.71
2023-03-16T19:43:30.148Z,6.73
2023-03-16T19:45:59.172Z,6.68
2023-03-16T19:48:33.090Z,6.61
2023-03-16T19:51:02.333Z,6.55
2023-03-16T19:53:32.357Z,6.46
2023-03-16T19:56:01.365Z,6.42
2023-03-16T19:58:34.855Z,6.41
2023-03-16T20:01:04.754Z,6.43
2023-03-16T20:03:36.752Z,6.39
2023-03-16T20:06:07.994Z,6.34
2023-03-16T20:08:36.927Z,6.31
2023-03-16T20:11:08.190Z,6.31
2023-03-16T20:13:37.282Z,6.30
2023-03-16T20:16:11.554Z,6.31
2023-03-16T20:18:40.580Z,6.30
2023-03-16T20:21:14.663Z,6.26
2023-03-16T20:23:44.028Z,6.26
2023-03-16T20:26:19.609Z,6.27
2023-03-16T20:28:49.126Z,6.25
2023-03-16T20:31:21.378Z,6.22
2023-03-16T20:33:51.849Z,6.20
2023-03-16T20:36:22.332Z,6.17
2023-03-16T20:38:51.500Z,6.15
2023-03-16T20:41:25.813Z,6.17
2023-03-16T20:43:56.922Z,6.22
2023-03-16T20:46:28.562Z,6.27
2023-03-16T20:49:00.120Z,6.28
2023-03-16T20:51:29.133Z,6.31
2023-03-16T20:53:58.135Z,6.34
2023-03-16T20:56:27.165Z,6.37
2023-03-16T20:58:56.607Z,6.36
2023-03-16T21:01:26.654Z,6.35
2023-03-16T21:03:56.635Z,6.34
2023-03-16T21:06:27.915Z,6.34
2023-03-16T21:08:59.189Z,6.37
2023-03-16T21:11:33.998Z,6.37
2023-03-16T21:14:03.660Z,6.38
2023-03-16T21:16:33.399Z,6.40
2023-03-16T21:19:02.343Z,6.38
2023-03-16T21:21:31.369Z,6.37
2023-03-16T21:24:03.513Z,6.38
2023-03-16T21:26:33.841Z,6.42
2023-03-16T21:29:08.131Z,6.42
2023-03-16T21:31:37.285Z,6.37
2023-03-16T21:34:06.254Z,6.32
2023-03-16T21:36:35.303Z,6.32
2023-03-16T21:39:18.841Z,6.31
2023-03-16T21:41:50.077Z,6.32
2023-03-16T21:44:19.041Z,6.35
2023-03-16T21:46:48.007Z,6.38
2023-03-16T21:49:17.457Z,6.35
2023-03-16T21:51:46.508Z,6.32
2023-03-16T21:54:17.388Z,6.35
2023-03-16T21:56:48.142Z,6.39
2023-03-16T21:59:17.130Z,6.49
2023-03-16T22:02:00.726Z,6.54
2023-03-16T22:04:31.025Z,6.60
2023-03-16T22:06:59.886Z,6.63
2023-03-16T22:09:29.489Z,6.67
2023-03-16T22:11:58.483Z,6.64
2023-03-16T22:14:27.493Z,6.67
2023-03-16T22:16:57.204Z,6.73
2023-03-16T22:19:27.042Z,6.77
2023-03-16T22:21:57.128Z,6.80
2023-03-16T22:24:29.654Z,6.84
2023-03-16T22:26:58.874Z,6.88
2023-03-16T22:29:29.772Z,6.89
2023-03-16T22:32:02.594Z,6.85
2023-03-16T22:34:37.281Z,6.79
2023-03-16T22:37:07.430Z,6.65
2023-03-16T22:39:38.585Z,6.54
2023-03-16T22:42:23.954Z,6.51
2023-03-16T22:44:52.772Z,6.50
2023-03-16T22:47:23.773Z,6.50
2023-03-16T22:49:53.435Z,6.50
2023-03-16T22:52:26.511Z,6.50
2023-03-16T22:54:55.733Z,6.53
2023-03-16T22:57:24.731Z,6.53
2023-03-16T22:59:53.825Z,6.54
2023-03-16T23:02:27.204Z,6.58
2023-03-16T23:04:56.421Z,6.63
2023-03-16T23:07:25.539Z,6.65
2023-03-16T23:09:55.097Z,6.69
2023-03-16T23:12:24.107Z,6.71
2023-03-16T23:14:53.123Z,6.71
2023-03-16T23:17:23.197Z,6.68
2023-03-16T23:19:52.597Z,6.71
2023-03-16T23:22:22.120Z,6.67
2023-03-16T23:24:51.002Z,6.61
2023-03-16T23:27:21.765Z,6.59
2023-03-16T23:29:51.058Z,6.50
2023-03-16T23:32:19.928Z,6.36
2023-03-16T23:34:48.924Z,6.24
2023-03-16T23:37:17.772Z,6.11
2023-03-16T23:39:46.697Z,6.03
2023-03-16T23:42:16.404Z,5.97
2023-03-16T23:44:45.439Z,5.96
2023-03-16T23:47:14.611Z,5.99
2023-03-16T23:49:43.945Z,5.97
2023-03-16T23:52:13.990Z,5.96
2023-03-16T23:54:43.834Z,5.96
2023-03-16T23:57:13.135Z,5.96
2023-03-16T23:59:42.121Z,5.90
